Time;durP1;ratioP1;P1;durP2;ratioP2;P2;SDS_P1;SDS_P2;PMS_P1;PMS_P2;Temp;Humidity;BMP_temperature;BMP_pressure;BME280_temperature;BME280_humidity;BME280_pressure;Samples;Min_cycle;Max_cycle;Signal;HPM_P1;HPM_P2
2022/09/30 00:01:52;;;;;;;0.63;0.63;;;;;;;6.20;100.00;99447.41;5041834;28;20510;-53
2022/09/30 00:04:21;;;;;;;0.50;0.40;;;;;;;6.01;100.00;99446.09;5026238;28;20494;-54
2022/09/30 00:06:48;;;;;;;1.00;1.00;;;;;;;5.97;100.00;99451.47;5041538;28;20452;-54
2022/09/30 00:09:15;;;;;;;2.00;0.50;;;;;;;6.04;100.00;99448.69;5043063;28;20451;-54
2022/09/30 00:11:42;;;;;;;1.30;0.73;;;;;;;6.13;100.00;99448.44;5037786;28;20569;-55
2022/09/30 00:14:15;;;;;;;1.90;1.80;;;;;;;6.18;100.00;99450.97;5035602;28;20525;-53
2022/09/30 00:16:42;;;;;;;1.37;1.27;;;;;;;6.16;100.00;99450.13;5039844;28;20502;-53
2022/09/30 00:19:09;;;;;;;1.33;1.23;;;;;;;6.22;100.00;99452.63;5025028;28;20478;-53
2022/09/30 00:21:36;;;;;;;1.70;1.03;;;;;;;6.16;100.00;99452.75;5038801;28;20496;-54
2022/09/30 00:24:04;;;;;;;9.83;3.43;;;;;;;6.08;100.00;99452.97;5035885;28;20532;-53
2022/09/30 00:26:31;;;;;;;0.70;0.50;;;;;;;5.98;100.00;99451.44;5039570;28;20456;-53
2022/09/30 00:28:59;;;;;;;0.37;0.27;;;;;;;5.98;100.00;99462.00;5042429;28;20525;-54
2022/09/30 00:31:29;;;;;;;10.50;1.40;;;;;;;5.84;100.00;99461.41;5039494;28;20548;-54
2022/09/30 00:34:10;;;;;;;0.67;0.63;;;;;;;5.92;100.00;99460.38;5035492;28;21039;-54
2022/09/30 00:36:43;;;;;;;2.20;1.27;;;;;;;5.90;100.00;99466.59;5036176;28;20444;-54
2022/09/30 00:39:14;;;;;;;0.97;0.97;;;;;;;5.86;100.00;99464.88;5023367;28;20512;-54
2022/09/30 00:41:42;;;;;;;1.50;1.50;;;;;;;5.93;100.00;99458.59;5035734;28;20443;-54
2022/09/30 00:44:46;;;;;;;2.87;1.03;;;;;;;5.82;100.00;99461.44;5041547;28;20475;-53
2022/09/30 00:47:40;;;;;;;0.60;0.60;;;;;;;5.92;100.00;99465.66;5042241;28;20443;-52
2022/09/30 00:50:22;;;;;;;0.53;0.40;;;;;;;5.81;100.00;99462.34;5041387;28;20513;-53
2022/09/30 00:52:54;;;;;;;1.67;1.50;;;;;;;5.68;100.00;99455.63;5049068;28;20470;-54
2022/09/30 00:55:32;;;;;;;0.50;0.50;;;;;;;5.67;100.00;99464.44;5041234;28;20991;-54
2022/09/30 00:58:02;;;;;;;0.47;0.47;;;;;;;5.65;100.00;99466.25;5031330;28;20835;-52
2022/09/30 01:00:29;;;;;;;0.77;0.77;;;;;;;5.68;100.00;99463.53;5039322;28;20448;-53
2022/09/30 01:02:56;;;;;;;5.90;0.50;;;;;;;5.55;100.00;99468.19;5042394;28;20460;-54
2022/09/30 01:05:25;;;;;;;1.67;0.77;;;;;;;5.63;100.00;99470.69;5029071;28;20468;-56
2022/09/30 01:07:55;;;;;;;0.60;0.60;;;;;;;5.67;100.00;99474.97;5042061;28;20487;-53
2022/09/30 01:10:21;;;;;;;0.53;0.47;;;;;;;5.55;100.00;99476.09;5039730;28;20494;-53
2022/09/30 01:12:48;;;;;;;0.67;0.67;;;;;;;5.61;100.00;99468.06;5035003;28;20485;-53
2022/09/30 01:15:14;;;;;;;9.43;1.00;;;;;;;5.50;100.00;99474.47;5037881;28;20483;-55
2022/09/30 01:17:56;;;;;;;0.60;0.47;;;;;;;5.39;100.00;99473.84;5042119;28;20553;-53
2022/09/30 01:20:46;;;;;;;0.80;0.77;;;;;;;5.54;100.00;99477.00;5042028;28;20442;-53
2022/09/30 01:23:31;;;;;;;0.40;0.40;;;;;;;5.63;100.00;99481.22;5038401;28;20466;-53
2022/09/30 01:26:17;;;;;;;1.47;0.90;;;;;;;5.73;100.00;99482.75;5035316;28;20500;-54
2022/09/30 01:29:05;;;;;;;0.90;0.90;;;;;;;5.54;100.00;99487.56;5024397;28;20831;-54
2022/09/30 01:31:42;;;;;;;0.53;0.50;;;;;;;5.61;100.00;99489.13;5036188;28;20566;-54
2022/09/30 01:34:20;;;;;;;0.50;0.40;;;;;;;5.62;100.00;99485.63;5022755;28;21058;-54
2022/09/30 01:37:12;;;;;;;1.10;1.07;;;;;;;5.44;100.00;99480.72;5035192;28;20451;-53
2022/09/30 01:40:06;;;;;;;3.73;2.33;;;;;;;5.35;100.00;99478.31;5036237;28;20885;-55
2022/09/30 01:42:41;;;;;;;0.83;0.83;;;;;;;5.36;100.00;99482.69;5027779;28;20443;-54
2022/09/30 01:45:32;;;;;;;1.10;1.07;;;;;;;5.41;100.00;99482.56;5035061;28;20474;-55
2022/09/30 01:48:11;;;;;;;1.50;0.90;;;;;;;5.33;100.00;99494.13;5017233;28;20523;-54
2022/09/30 01:51:06;;;;;;;1.87;0.70;;;;;;;5.29;100.00;99489.81;5040074;28;20486;-55
2022/09/30 01:53:59;;;;;;;0.80;0.80;;;;;;;5.14;100.00;99490.13;5045108;28;20978;-54
2022/09/30 01:56:29;;;;;;;0.50;0.50;;;;;;;5.08;100.00;99492.03;5048375;28;20454;-53
2022/09/30 01:59:05;;;;;;;1.10;1.10;;;;;;;5.19;100.00;99487.41;5041846;28;20965;-52
2022/09/30 02:01:38;;;;;;;1.17;0.60;;;;;;;5.35;100.00;99492.34;5045550;28;20447;-54
2022/09/30 02:04:23;;;;;;;0.73;0.73;;;;;;;5.19;100.00;99501.44;5044543;28;20467;-54
2022/09/30 02:06:55;;;;;;;0.63;0.60;;;;;;;5.07;100.00;99493.75;5029291;28;20469;-53
2022/09/30 02:09:28;;;;;;;0.63;0.60;;;;;;;5.01;100.00;99504.44;5038368;28;20456;-55
2022/09/30 02:11:58;;;;;;;0.50;0.50;;;;;;;5.11;100.00;99508.63;5041491;28;20495;-54
2022/09/30 02:14:36;;;;;;;1.53;0.63;;;;;;;5.27;100.00;99511.84;5044875;28;20471;-55
2022/09/30 02:17:14;;;;;;;1.10;1.10;;;;;;;5.35;100.00;99515.19;5044054;28;20854;-54
2022/09/30 02:19:47;;;;;;;0.50;0.50;;;;;;;5.15;100.00;99514.69;5026780;28;20453;-53
2022/09/30 02:22:19;;;;;;;3.67;1.37;;;;;;;5.06;100.00;99511.34;5037896;28;20890;-54
2022/09/30 02:24:51;;;;;;;0.50;0.40;;;;;;;5.12;100.00;99509.50;5042151;28;20467;-54
2022/09/30 02:27:27;;;;;;;0.67;0.60;;;;;;;4.94;100.00;99508.09;5044683;28;20447;-54
2022/09/30 02:30:00;;;;;;;0.83;0.40;;;;;;;4.93;100.00;99504.56;5042984;28;20508;-53
2022/09/30 02:32:33;;;;;;;0.80;0.80;;;;;;;4.98;100.00;99505.38;5037960;28;20548;-54
2022/09/30 02:35:05;;;;;;;2.00;0.50;;;;;;;5.03;100.00;99502.63;5044394;28;20904;-53
2022/09/30 02:37:37;;;;;;;0.60;0.43;;;;;;;5.16;100.00;99513.81;5039151;28;20454;-54
2022/09/30 02:40:11;;;;;;;0.63;0.63;;;;;;;4.92;100.00;99512.50;5037765;28;21330;-54
2022/09/30 02:42:38;;;;;;;0.60;0.57;;;;;;;4.91;100.00;99516.88;5041603;28;20479;-54
2022/09/30 02:45:15;;;;;;;0.40;0.30;;;;;;;4.87;100.00;99516.97;5044452;28;20472;-54
2022/09/30 02:48:25;;;;;;;0.60;0.60;;;;;;;4.89;100.00;99523.94;5042654;28;20442;-53
2022/09/30 02:51:04;;;;;;;0.30;0.20;;;;;;;4.85;100.00;99516.16;5025298;28;20487;-54
2022/09/30 02:53:50;;;;;;;0.60;0.60;;;;;;;4.80;100.00;99528.50;5044341;28;20463;-54
2022/09/30 02:56:41;;;;;;;1.20;0.70;;;;;;;4.84;100.00;99533.72;5046522;28;20442;-51
2022/09/30 02:59:08;;;;;;;0.40;0.40;;;;;;;4.86;100.00;99533.69;5038446;28;20495;-50
2022/09/30 03:01:40;;;;;;;0.80;0.80;;;;;;;4.68;100.00;99527.84;5044124;28;21019;-51
2022/09/30 03:04:11;;;;;;;0.90;0.70;;;;;;;4.75;100.00;99520.69;5043777;28;20470;-52
2022/09/30 03:06:38;;;;;;;0.87;0.87;;;;;;;4.75;100.00;99520.69;5044370;28;20452;-51
2022/09/30 03:09:04;;;;;;;0.47;0.47;;;;;;;4.74;100.00;99524.22;5044017;28;20455;-51
2022/09/30 03:11:31;;;;;;;0.40;0.30;;;;;;;4.79;100.00;99529.41;5037432;28;20497;-52
2022/09/30 03:14:00;;;;;;;4.43;0.60;;;;;;;4.81;100.00;99533.78;5037081;28;20529;-50
2022/09/30 03:16:45;;;;;;;0.70;0.30;;;;;;;4.93;100.00;99533.53;5043305;28;20466;-52
2022/09/30 03:19:30;;;;;;;0.50;0.50;;;;;;;4.65;100.00;99541.03;5044102;28;20451;-52
2022/09/30 03:22:18;;;;;;;0.40;0.30;;;;;;;4.80;100.00;99537.31;5043239;28;20447;-50
2022/09/30 03:24:52;;;;;;;0.60;0.50;;;;;;;4.65;100.00;99542.78;5028612;28;20474;-53
2022/09/30 03:27:31;;;;;;;1.57;1.47;;;;;;;5.04;100.00;99551.78;5037175;28;20512;-51
2022/09/30 03:30:12;;;;;;;0.83;0.77;;;;;;;5.34;100.00;99551.22;5038886;28;20455;-50
2022/09/30 03:33:04;;;;;;;0.53;0.30;;;;;;;5.27;100.00;99548.72;5024361;28;21010;-52
2022/09/30 03:36:03;;;;;;;0.40;0.30;;;;;;;4.82;100.00;99545.16;5040002;28;20472;-51
2022/09/30 03:38:46;;;;;;;1.23;1.23;;;;;;;4.77;100.00;99547.84;4988531;28;20462;-53
2022/09/30 03:41:46;;;;;;;1.63;1.03;;;;;;;4.67;100.00;99557.69;5042367;28;20470;-52
2022/09/30 03:44:37;;;;;;;1.63;0.50;;;;;;;4.72;100.00;99554.97;5027209;28;20474;-51
2022/09/30 03:47:08;;;;;;;0.80;0.40;;;;;;;4.69;100.00;99562.94;5036338;28;20451;-50
2022/09/30 03:49:40;;;;;;;3.37;1.53;;;;;;;4.60;100.00;99568.34;5037757;28;20498;-50
2022/09/30 03:52:09;;;;;;;0.50;0.40;;;;;;;4.66;100.00;99570.84;5025228;28;20548;-51
2022/09/30 03:54:51;;;;;;;0.40;0.30;;;;;;;4.59;100.00;99566.59;5036180;28;21000;-52
2022/09/30 03:57:18;;;;;;;0.70;0.70;;;;;;;4.68;100.00;99577.84;5049395;28;20455;-50
2022/09/30 03:59:44;;;;;;;4.80;0.77;;;;;;;4.55;100.00;99581.56;5036033;28;20451;-52
2022/09/30 04:02:12;;;;;;;0.70;0.70;;;;;;;4.60;100.00;99579.72;5039948;28;20448;-51
2022/09/30 04:04:39;;;;;;;0.40;0.40;;;;;;;4.66;100.00;99584.91;5043037;28;20472;-51
2022/09/30 04:07:07;;;;;;;0.60;0.60;;;;;;;4.64;100.00;99577.91;5040422;28;20450;-51
2022/09/30 04:09:34;;;;;;;0.60;0.60;;;;;;;4.62;100.00;99585.84;5036046;28;20516;-50
2022/09/30 04:12:00;;;;;;;0.30;0.20;;;;;;;4.64;100.00;99583.16;5037996;28;20837;-51
2022/09/30 04:14:27;;;;;;;0.50;0.50;;;;;;;4.92;100.00;99584.44;5042796;28;20565;-51
2022/09/30 04:16:53;;;;;;;0.80;0.57;;;;;;;4.83;100.00;99581.13;5040169;28;21026;-51
2022/09/30 04:19:20;;;;;;;2.40;1.03;;;;;;;4.88;100.00;99582.78;5036251;28;20459;-51
2022/09/30 04:21:46;;;;;;;1.73;1.07;;;;;;;4.83;100.00;99578.50;5038415;28;21067;-51
2022/09/30 04:24:13;;;;;;;1.93;0.43;;;;;;;4.94;100.00;99587.94;5042761;28;20478;-52
2022/09/30 04:26:39;;;;;;;6.33;2.40;;;;;;;4.96;100.00;99585.28;5040736;28;20484;-51
2022/09/30 04:29:05;;;;;;;0.60;0.53;;;;;;;4.96;100.00;99590.56;5035760;28;20516;-52
2022/09/30 04:31:32;;;;;;;0.70;0.57;;;;;;;4.97;100.00;99594.94;5033881;28;20487;-52
2022/09/30 04:33:58;;;;;;;1.03;1.03;;;;;;;4.86;100.00;99607.41;5027196;28;20857;-51
2022/09/30 04:36:25;;;;;;;1.40;1.30;;;;;;;4.86;100.00;99608.25;5038030;28;20455;-51
2022/09/30 04:38:52;;;;;;;0.73;0.73;;;;;;;4.91;100.00;99606.41;5042474;28;20447;-51
2022/09/30 04:41:19;;;;;;;41.63;2.30;;;;;;;4.81;100.00;99607.50;5040290;28;20504;-50
2022/09/30 04:43:47;;;;;;;1.03;0.83;;;;;;;4.89;100.00;99610.84;5035485;28;21020;-51
2022/09/30 04:46:17;;;;;;;2.83;2.63;;;;;;;4.74;100.00;99613.72;5037658;28;20456;-51
2022/09/30 04:48:44;;;;;;;1.70;0.97;;;;;;;4.85;100.00;99617.06;5042349;28;20509;-52
2022/09/30 04:51:16;;;;;;;0.60;0.50;;;;;;;4.88;100.00;99617.00;5042018;28;20486;-50
2022/09/30 04:53:43;;;;;;;1.07;1.00;;;;;;;4.97;100.00;99618.63;5023319;28;20482;-51
2022/09/30 04:56:10;;;;;;;0.97;0.87;;;;;;;4.97;100.00;99621.25;5035065;28;20452;-51
2022/09/30 04:58:37;;;;;;;1.40;1.27;;;;;;;5.02;100.00;99624.69;5036603;28;20451;-52
2022/09/30 05:01:05;;;;;;;3.30;0.50;;;;;;;5.00;100.00;99622.06;5035186;28;21042;-52
2022/09/30 05:03:33;;;;;;;0.90;0.90;;;;;;;4.99;100.00;99630.88;5040238;28;20533;-51
2022/09/30 05:06:00;;;;;;;0.93;0.83;;;;;;;4.90;100.00;99636.28;5042146;28;20451;-53
2022/09/30 05:08:26;;;;;;;0.57;0.57;;;;;;;4.95;100.00;99633.59;5037600;28;20511;-53
2022/09/30 05:10:58;;;;;;;2.00;1.90;;;;;;;4.97;100.00;99639.69;5035418;28;20455;-52
2022/09/30 05:13:28;;;;;;;2.73;1.17;;;;;;;5.04;100.00;99634.28;5038767;28;20452;-54
2022/09/30 05:15:55;;;;;;;0.50;0.30;;;;;;;5.15;100.00;99636.75;5042178;28;20502;-53
2022/09/30 05:18:24;;;;;;;0.60;0.60;;;;;;;5.17;100.00;99639.34;5038966;28;20573;-52
2022/09/30 05:20:52;;;;;;;5.40;1.20;;;;;;;5.15;100.00;99656.94;5034866;28;20488;-52
2022/09/30 05:23:19;;;;;;;0.50;0.50;;;;;;;5.28;100.00;99664.63;5039884;28;20447;-53
2022/09/30 05:25:46;;;;;;;0.50;0.50;;;;;;;5.43;100.00;99673.16;5046290;28;20463;-52
2022/09/30 05:28:13;;;;;;;0.57;0.50;;;;;;;5.33;100.00;99673.28;5043998;28;20458;-53
2022/09/30 05:30:44;;;;;;;3.33;1.10;;;;;;;5.38;100.00;99678.50;5038732;28;20455;-53
2022/09/30 05:33:12;;;;;;;2.63;0.60;;;;;;;5.51;100.00;99680.03;5040697;28;20862;-53
2022/09/30 05:35:40;;;;;;;1.10;1.00;;;;;;;5.96;100.00;99680.09;5045776;28;20459;-53
2022/09/30 05:38:08;;;;;;;0.77;0.30;;;;;;;5.69;100.00;99675.31;5044806;28;20455;-50
2022/09/30 05:40:38;;;;;;;2.60;0.80;;;;;;;5.82;100.00;99687.38;5038552;28;20454;-50
2022/09/30 05:43:06;;;;;;;3.13;0.83;;;;;;;5.63;100.00;99689.50;5039117;28;20513;-51
2022/09/30 05:45:33;;;;;;;0.80;0.50;;;;;;;5.68;100.00;99687.63;5045114;28;20526;-51
2022/09/30 05:48:00;;;;;;;0.53;0.53;;;;;;;5.75;100.00;99696.28;5044684;28;20535;-50
2022/09/30 05:50:26;;;;;;;1.60;0.93;;;;;;;6.01;100.00;99698.44;5038809;28;20451;-51
2022/09/30 05:52:53;;;;;;;0.53;0.40;;;;;;;5.87;100.00;99701.31;5051222;28;20546;-51
2022/09/30 05:55:21;;;;;;;0.60;0.50;;;;;;;5.93;100.00;99698.63;5038653;28;20482;-51
2022/09/30 05:57:49;;;;;;;0.57;0.40;;;;;;;5.85;100.00;99705.75;5050341;28;20465;-52
2022/09/30 06:00:17;;;;;;;0.50;0.40;;;;;;;5.63;100.00;99702.66;5038958;28;20454;-50
2022/09/30 06:02:43;;;;;;;8.23;0.93;;;;;;;5.53;100.00;99703.72;5038165;28;20448;-52
2022/09/30 06:05:11;;;;;;;1.07;1.00;;;;;;;5.57;100.00;99705.41;5044797;28;20545;-50
2022/09/30 06:07:38;;;;;;;0.40;0.30;;;;;;;5.54;100.00;99713.38;5044785;28;20521;-50
2022/09/30 06:10:09;;;;;;;0.30;0.20;;;;;;;5.41;100.00;99717.97;5039705;28;20454;-50
2022/09/30 06:12:37;;;;;;;2.80;1.10;;;;;;;5.44;100.00;99723.19;5037919;28;20561;-50
2022/09/30 06:15:04;;;;;;;0.47;0.30;;;;;;;5.77;100.00;99723.50;5041428;28;20476;-50
2022/09/30 06:17:31;;;;;;;0.60;0.43;;;;;;;5.87;100.00;99719.78;5044549;28;20451;-50
2022/09/30 06:19:57;;;;;;;0.60;0.50;;;;;;;6.06;100.00;99729.13;5041052;28;20512;-52
2022/09/30 06:22:24;;;;;;;1.10;1.00;;;;;;;5.75;100.00;99738.47;5037409;28;20450;-51
2022/09/30 06:24:50;;;;;;;0.80;0.70;;;;;;;5.91;100.00;99739.97;5041178;28;20479;-51
2022/09/30 06:27:20;;;;;;;0.50;0.30;;;;;;;5.71;100.00;99735.03;5044218;28;20896;-52
2022/09/30 06:29:48;;;;;;;1.83;0.57;;;;;;;5.87;100.00;99736.47;5041343;28;20508;-51
2022/09/30 06:32:14;;;;;;;1.70;1.60;;;;;;;5.79;100.00;99742.81;5037531;28;20490;-51
2022/09/30 06:34:40;;;;;;;0.50;0.47;;;;;;;5.82;100.00;99748.88;5043995;28;20478;-51
2022/09/30 06:37:07;;;;;;;1.90;1.13;;;;;;;5.85;100.00;99747.97;5037591;28;20524;-51
2022/09/30 06:39:33;;;;;;;1.40;1.30;;;;;;;6.12;100.00;99741.34;5040569;28;20501;-51
2022/09/30 06:41:59;;;;;;;1.23;0.70;;;;;;;6.10;100.00;99743.13;5044036;28;20510;-53
2022/09/30 06:44:26;;;;;;;4.67;1.23;;;;;;;6.58;100.00;99735.09;5040940;28;20520;-52
2022/09/30 06:46:53;;;;;;;0.73;0.73;;;;;;;6.63;100.00;99733.25;5037310;28;20521;-52
2022/09/30 06:49:20;;;;;;;1.90;0.77;;;;;;;6.60;100.00;99731.56;5040225;28;21202;-51
2022/09/30 06:51:46;;;;;;;0.70;0.70;;;;;;;6.42;100.00;99738.06;5048685;28;20501;-51
2022/09/30 06:54:13;;;;;;;1.90;1.80;;;;;;;6.43;100.00;99738.94;5038663;28;20483;-53
2022/09/30 06:56:39;;;;;;;0.80;0.63;;;;;;;6.25;100.00;99742.84;5043379;28;20522;-52
2022/09/30 06:59:05;;;;;;;0.73;0.70;;;;;;;6.15;100.00;99746.53;5030562;28;20459;-51
2022/09/30 07:01:32;;;;;;;0.60;0.50;;;;;;;6.07;100.00;99751.13;5043995;28;20452;-51
2022/09/30 07:04:08;;;;;;;0.30;0.23;;;;;;;6.08;100.00;99748.44;5042779;28;21361;-52
2022/09/30 07:06:34;;;;;;;0.70;0.70;;;;;;;6.59;100.00;99758.00;5043555;28;20642;-51
2022/09/30 07:09:00;;;;;;;0.90;0.90;;;;;;;6.32;100.00;99757.66;5043320;28;20512;-51
2022/09/30 07:11:27;;;;;;;1.00;0.90;;;;;;;6.24;100.00;99757.78;5023612;28;20974;-51
2022/09/30 07:13:54;;;;;;;1.13;1.00;;;;;;;6.25;100.00;99763.94;5036557;28;20534;-52
2022/09/30 07:16:20;;;;;;;0.80;0.80;;;;;;;6.32;100.00;99762.94;5043360;28;21027;-52
2022/09/30 07:18:47;;;;;;;0.70;0.70;;;;;;;6.23;100.00;99760.47;5043424;28;20457;-51
2022/09/30 07:21:14;;;;;;;0.90;0.90;;;;;;;6.08;100.00;99759.00;5036904;28;21054;-53
2022/09/30 07:23:46;;;;;;;1.47;1.23;;;;;;;6.08;100.00;99772.19;5036161;28;20495;-53
2022/09/30 07:26:15;;;;;;;0.60;0.50;;;;;;;6.02;100.00;99774.91;5041876;28;20853;-52
2022/09/30 07:28:42;;;;;;;0.80;0.80;;;;;;;6.20;100.00;99769.31;5043284;28;20978;-52
2022/09/30 07:31:17;;;;;;;0.87;0.87;;;;;;;6.56;100.00;99771.25;5038498;28;20512;-52
2022/09/30 07:34:05;;;;;;;0.83;0.83;;;;;;;6.34;100.00;99770.81;5036083;28;20842;-51
2022/09/30 07:36:36;;;;;;;0.50;0.40;;;;;;;6.37;100.00;99774.25;5037608;28;20444;-53
2022/09/30 07:39:05;;;;;;;1.63;1.53;;;;;;;6.51;100.00;99779.25;5043144;28;20878;-52
2022/09/30 07:41:34;;;;;;;1.33;1.23;;;;;;;7.20;100.00;99769.84;5043151;28;20523;-53
2022/09/30 07:44:01;;;;;;;0.77;0.77;;;;;;;6.89;100.00;99783.75;5036984;28;20474;-53
2022/09/30 07:46:31;;;;;;;0.80;0.80;;;;;;;6.81;100.00;99789.19;5035089;28;20460;-53
2022/09/30 07:49:04;;;;;;;1.17;1.07;;;;;;;7.03;100.00;99789.59;5041946;28;20455;-52
2022/09/30 07:51:36;;;;;;;0.60;0.60;;;;;;;7.05;100.00;99787.78;5045367;28;20451;-52
2022/09/30 07:54:05;;;;;;;0.90;0.47;;;;;;;6.76;100.00;99788.41;5039362;28;20542;-52
2022/09/30 07:56:32;;;;;;;0.50;0.40;;;;;;;7.13;100.00;99784.97;5042672;28;20533;-52
2022/09/30 07:59:19;;;;;;;1.40;1.13;;;;;;;7.42;100.00;99795.75;5029206;28;20482;-53
2022/09/30 08:01:47;;;;;;;1.73;1.13;;;;;;;7.37;100.00;99791.44;5042600;28;20455;-52
2022/09/30 08:04:14;;;;;;;0.60;0.53;;;;;;;7.20;100.00;99797.13;5043017;28;20995;-51
2022/09/30 08:06:46;;;;;;;1.23;1.13;;;;;;;7.16;100.00;99802.53;5036573;28;20521;-53
2022/09/30 08:09:15;;;;;;;2.30;0.93;;;;;;;7.03;100.00;99809.88;5035922;28;20854;-51
2022/09/30 08:11:42;;;;;;;2.13;2.03;;;;;;;7.10;100.00;99808.81;5040603;28;20529;-52
2022/09/30 08:14:14;;;;;;;1.63;1.53;;;;;;;7.21;100.00;99821.78;5042432;28;20471;-52
2022/09/30 08:16:40;;;;;;;0.80;0.80;;;;;;;7.33;100.00;99818.88;5038283;28;20963;-52
2022/09/30 08:19:13;;;;;;;0.90;0.90;;;;;;;7.49;100.00;99809.66;5035367;28;20984;-52
2022/09/30 08:21:39;;;;;;;0.87;0.43;;;;;;;7.57;100.00;99806.84;5038992;28;20447;-52
2022/09/30 08:24:05;;;;;;;1.50;1.27;;;;;;;7.94;100.00;99810.28;5041760;28;20984;-53
2022/09/30 08:26:32;;;;;;;3.13;1.30;;;;;;;7.95;100.00;99812.06;5041077;28;20455;-52
2022/09/30 08:28:59;;;;;;;2.03;1.03;;;;;;;8.11;100.00;99820.47;5039545;28;20458;-52
2022/09/30 08:31:26;;;;;;;0.90;0.70;;;;;;;7.97;100.00;99818.19;5038953;28;20456;-53
2022/09/30 08:33:53;;;;;;;1.13;1.07;;;;;;;8.10;100.00;99817.88;5042160;28;20499;-52
2022/09/30 08:36:22;;;;;;;1.40;0.90;;;;;;;8.27;100.00;99826.22;5035539;28;20814;-52
2022/09/30 08:38:49;;;;;;;0.50;0.40;;;;;;;8.65;100.00;99824.34;5024151;28;20820;-53
2022/09/30 08:41:32;;;;;;;2.93;1.77;;;;;;;8.99;100.00;99817.16;5041146;28;20960;-52
2022/09/30 08:44:19;;;;;;;0.40;0.40;;;;;;;8.80;100.00;99814.19;5040950;28;20542;-52
2022/09/30 08:46:54;;;;;;;1.23;1.13;;;;;;;8.68;100.00;99818.97;5017948;28;20573;-53
2022/09/30 08:49:48;;;;;;;5.10;1.23;;;;;;;9.15;100.00;99817.53;5019303;28;20447;-52
2022/09/30 08:52:30;;;;;;;8.20;1.23;;;;;;;9.00;100.00;99820.66;5025857;28;20494;-52
2022/09/30 08:55:20;;;;;;;26.17;0.77;;;;;;;9.13;100.00;99804.34;5035563;28;20876;-54
2022/09/30 08:57:47;;;;;;;2.07;1.27;;;;;;;9.50;100.00;99803.19;5047348;28;20512;-54
2022/09/30 09:00:16;;;;;;;0.60;0.60;;;;;;;9.41;100.00;99804.34;5018369;28;20454;-54
2022/09/30 09:02:53;;;;;;;1.63;0.70;;;;;;;9.67;100.00;99802.66;5035049;28;20448;-54
2022/09/30 09:05:46;;;;;;;0.70;0.70;;;;;;;9.93;100.00;99813.28;5039371;28;20525;-55
2022/09/30 09:08:39;;;;;;;1.20;0.80;;;;;;;10.06;100.00;99813.72;5035167;28;20497;-54
2022/09/30 09:11:19;;;;;;;2.23;0.73;;;;;;;10.31;100.00;99816.44;5035042;28;20504;-54
2022/09/30 09:13:54;;;;;;;10.73;1.00;;;;;;;10.31;100.00;99821.75;5036284;28;20530;-54
2022/09/30 09:16:41;;;;;;;3.27;1.67;;;;;;;10.53;100.00;99820.03;5041362;28;20450;-55
2022/09/30 09:19:10;;;;;;;1.47;1.33;;;;;;;10.83;100.00;99814.56;5041745;28;20450;-55
2022/09/30 09:21:53;;;;;;;1.17;1.00;;;;;;;10.70;100.00;99822.13;5038217;28;20458;-55
2022/09/30 09:24:24;;;;;;;1.37;1.27;;;;;;;11.08;100.00;99818.00;5017144;28;20521;-54
2022/09/30 09:26:53;;;;;;;2.23;1.40;;;;;;;11.43;99.85;99827.28;5035746;28;20459;-55
2022/09/30 09:29:38;;;;;;;6.77;1.50;;;;;;;11.85;98.17;99831.84;5041730;28;20455;-55
2022/09/30 09:32:16;;;;;;;2.13;1.50;;;;;;;12.08;98.88;99821.09;5041295;28;20604;-55
2022/09/30 09:34:44;;;;;;;1.77;1.67;;;;;;;12.11;96.82;99823.63;5038664;28;20561;-55
2022/09/30 09:40:41;;;;;;;1.80;1.47;;;;;;;12.43;97.85;99824.91;5034381;28;20473;-55
2022/09/30 09:43:22;;;;;;;1.67;1.57;;;;;;;12.58;97.73;99826.03;5034482;28;20506;-55
2022/09/30 09:46:20;;;;;;;3.90;3.17;;;;;;;12.36;97.23;99836.78;5026574;28;20908;-54
2022/09/30 09:48:49;;;;;;;2.77;2.30;;;;;;;12.72;96.88;99833.41;5034318;28;20549;-55
2022/09/30 09:51:31;;;;;;;3.63;3.33;;;;;;;12.69;96.58;99830.88;5043764;28;20477;-55
2022/09/30 09:54:00;;;;;;;2.37;2.17;;;;;;;12.55;96.71;99818.16;5038568;28;20506;-55
2022/09/30 09:56:29;;;;;;;3.00;2.53;;;;;;;12.73;97.04;99814.66;5043866;28;20451;-55
2022/09/30 09:59:24;;;;;;;1.97;1.87;;;;;;;12.64;97.57;99819.56;5037238;28;20455;-55
2022/09/30 10:01:52;;;;;;;3.70;2.97;;;;;;;12.82;97.65;99809.88;5019815;28;20459;-55
2022/09/30 10:04:31;;;;;;;2.63;2.37;;;;;;;13.28;95.81;99812.16;5033045;28;20468;-55
2022/09/30 10:07:13;;;;;;;1.70;1.60;;;;;;;13.41;94.69;99807.09;5037522;28;20548;-55
2022/09/30 10:09:42;;;;;;;3.17;2.10;;;;;;;13.78;93.84;99808.84;5035464;28;20455;-55
2022/09/30 10:12:08;;;;;;;3.60;3.33;;;;;;;13.71;93.72;99812.78;5039054;28;20451;-54
2022/09/30 10:14:44;;;;;;;1.23;1.10;;;;;;;13.91;92.91;99818.00;5043992;28;20561;-55
2022/09/30 10:17:25;;;;;;;14.03;3.20;;;;;;;13.92;91.32;99814.38;5044232;28;20829;-56
2022/09/30 10:19:56;;;;;;;3.80;2.93;;;;;;;13.98;91.39;99815.00;5040273;28;20504;-56
2022/09/30 10:22:31;;;;;;;3.33;3.03;;;;;;;14.09;91.50;99812.66;5037455;28;20504;-55
2022/09/30 10:25:12;;;;;;;7.50;3.13;;;;;;;14.36;91.58;99805.03;5039916;28;20498;-55
2022/09/30 10:27:55;;;;;;;3.17;2.87;;;;;;;14.69;90.63;99819.38;5044510;28;20451;-55
2022/09/30 10:30:43;;;;;;;2.70;2.27;;;;;;;14.24;89.91;99815.41;5044126;28;20450;-55
2022/09/30 10:33:22;;;;;;;3.13;2.77;;;;;;;14.45;90.15;99804.59;5042241;28;20999;-55
2022/09/30 10:35:53;;;;;;;3.43;1.70;;;;;;;14.69;86.94;99799.78;5044207;28;20510;-55
2022/09/30 10:38:21;;;;;;;2.93;2.53;;;;;;;14.41;87.12;99794.97;5044158;28;20450;-55
2022/09/30 10:40:50;;;;;;;7.00;2.13;;;;;;;14.88;86.84;99794.28;5038598;28;20454;-55
2022/09/30 10:43:32;;;;;;;2.13;1.90;;;;;;;15.34;85.58;99797.94;5037029;28;20452;-55
2022/09/30 10:46:02;;;;;;;4.43;2.60;;;;;;;15.41;85.59;99791.31;5039890;28;20509;-54
2022/09/30 10:48:50;;;;;;;8.37;2.60;;;;;;;15.41;84.66;99792.19;5024815;28;21033;-54
2022/09/30 10:51:32;;;;;;;1.57;1.47;;;;;;;15.26;83.44;99795.72;5033988;28;20444;-55
2022/09/30 10:54:00;;;;;;;1.73;1.63;;;;;;;15.32;84.42;99787.34;5040624;28;20498;-55
2022/09/30 10:56:44;;;;;;;9.87;1.07;;;;;;;15.58;83.80;99791.22;5046870;28;20446;-56
2022/09/30 10:59:22;;;;;;;1.80;1.60;;;;;;;15.56;82.24;99794.94;5038345;28;20454;-55
2022/09/30 11:01:55;;;;;;;1.57;1.47;;;;;;;15.73;80.17;99780.59;5025192;28;20458;-55
2022/09/30 11:04:36;;;;;;;1.20;1.10;;;;;;;15.44;79.11;99791.13;5047797;28;20466;-55
2022/09/30 11:07:15;;;;;;;2.00;1.20;;;;;;;15.41;78.96;99786.81;5040408;28;20446;-55
2022/09/30 11:09:53;;;;;;;22.60;1.00;;;;;;;15.38;81.72;99788.81;5036804;28;20470;-55
2022/09/30 11:12:31;;;;;;;1.87;1.60;;;;;;;15.62;79.89;99792.81;5018873;28;20526;-55
2022/09/30 11:15:36;;;;;;;1.27;1.17;;;;;;;15.55;77.87;99791.41;5041522;28;20470;-55
2022/09/30 11:18:20;;;;;;;1.10;0.90;;;;;;;15.55;79.00;99787.84;5007507;28;20459;-55
2022/09/30 11:20:55;;;;;;;0.87;0.80;;;;;;;15.85;78.43;99788.78;5036091;28;20508;-55
2022/09/30 11:23:43;;;;;;;1.63;1.53;;;;;;;16.03;77.92;99794.88;5038776;28;20443;-55
2022/09/30 11:26:35;;;;;;;2.67;1.40;;;;;;;16.17;77.72;99791.38;5025064;28;20524;-56
2022/09/30 11:29:14;;;;;;;1.87;0.93;;;;;;;16.35;75.94;99784.94;5036076;28;20459;-55
2022/09/30 11:31:56;;;;;;;3.83;1.60;;;;;;;16.15;74.78;99785.25;5036855;28;20459;-55
2022/09/30 11:34:25;;;;;;;0.80;0.80;;;;;;;16.47;76.15;99776.16;5026167;28;20821;-54
2022/09/30 11:37:04;;;;;;;7.27;1.80;;;;;;;16.38;75.12;99781.19;5035957;28;20857;-54
2022/09/30 11:39:55;;;;;;;0.80;0.77;;;;;;;16.03;75.44;99777.94;5039424;28;20474;-55
2022/09/30 11:42:35;;;;;;;1.40;1.07;;;;;;;16.25;76.43;99773.88;5023548;28;20478;-54
2022/09/30 11:45:28;;;;;;;3.80;1.07;;;;;;;16.76;75.75;99769.00;5035659;28;20977;-55
2022/09/30 11:48:17;;;;;;;0.77;0.63;;;;;;;16.45;76.11;99772.69;5036821;28;20904;-55
2022/09/30 11:51:08;;;;;;;1.00;1.00;;;;;;;16.20;75.98;99770.63;5032098;28;20524;-56
2022/09/30 11:54:04;;;;;;;0.93;0.83;;;;;;;16.54;76.76;99772.13;5042958;28;20522;-54
2022/09/30 11:56:52;;;;;;;0.70;0.60;;;;;;;16.82;76.36;99773.97;5036725;28;20458;-55
2022/09/30 11:59:25;;;;;;;0.67;0.60;;;;;;;16.69;75.16;99778.38;5035780;28;20452;-55
2022/09/30 12:01:55;;;;;;;2.63;1.73;;;;;;;16.40;75.63;99777.47;5024351;28;20477;-54
2022/09/30 12:04:33;;;;;;;1.00;0.87;;;;;;;16.65;77.76;99768.78;5034222;28;20467;-53
2022/09/30 12:07:10;;;;;;;0.60;0.40;;;;;;;16.88;76.01;99778.13;5038607;28;20447;-53
2022/09/30 12:09:46;;;;;;;0.70;0.70;;;;;;;16.97;77.26;99771.28;5035446;28;20454;-53